Time;durP1;ratioP1;P1;durP2;ratioP2;P2;SDS_P1;SDS_P2;PMS_P1;PMS_P2;Temp;Humidity;BMP_temperature;BMP_pressure;BME280_temperature;BME280_humidity;BME280_pressure;Samples;Min_cycle;Max_cycle;Signal;HPM_P1;HPM_P2
2021/03/21 00:02:16;;;;;;;2.05;1.13;;;;;;;24.88;27.37;97211.44;5052699;28;20456;-27
2021/03/21 00:04:41;;;;;;;1.63;1.05;;;;;;;24.87;27.17;97209.75;5052106;28;20146;-28
2021/03/21 00:07:07;;;;;;;1.73;0.90;;;;;;;24.88;27.31;97214.06;5047980;28;20024;-27
2021/03/21 00:09:32;;;;;;;2.08;1.20;;;;;;;24.87;27.32;97213.22;5051482;28;20553;-27
2021/03/21 00:11:58;;;;;;;1.60;0.90;;;;;;;24.88;27.19;97200.97;5057773;28;20115;-28
2021/03/21 00:14:23;;;;;;;3.40;0.90;;;;;;;24.88;27.19;97203.59;5059763;28;20047;-27
2021/03/21 00:16:48;;;;;;;1.85;1.00;;;;;;;24.87;27.17;97201.88;5053805;28;20048;-28
2021/03/21 00:19:14;;;;;;;1.05;0.88;;;;;;;24.88;27.37;97208.81;5059309;28;20032;-27
2021/03/21 00:21:39;;;;;;;2.30;1.13;;;;;;;24.88;27.14;97200.97;5049265;28;20123;-27
2021/03/21 00:24:05;;;;;;;1.98;1.10;;;;;;;24.86;27.23;97203.66;5049577;28;20025;-27
2021/03/21 00:26:30;;;;;;;2.15;0.95;;;;;;;24.86;27.26;97201.03;5052388;28;20032;-28
2021/03/21 00:28:57;;;;;;;1.98;0.95;;;;;;;24.86;27.51;97203.66;5053120;28;20039;-27
2021/03/21 00:31:22;;;;;;;1.63;0.90;;;;;;;24.86;27.43;97198.41;5048749;28;20040;-27
2021/03/21 00:33:47;;;;;;;1.75;0.70;;;;;;;24.87;27.20;97196.66;5049025;28;20107;-28
2021/03/21 00:36:14;;;;;;;1.63;0.95;;;;;;;24.86;27.17;97195.78;5050429;28;20025;-29
2021/03/21 00:38:43;;;;;;;1.88;0.98;;;;;;;24.88;27.43;97198.34;5049311;28;20070;-29
2021/03/21 00:41:09;;;;;;;1.42;0.90;;;;;;;24.87;27.41;97196.66;5045633;28;20156;-27
2021/03/21 00:43:34;;;;;;;0.85;0.60;;;;;;;24.86;27.34;97192.31;5045160;28;20037;-28
2021/03/21 00:46:00;;;;;;;1.45;0.98;;;;;;;24.86;27.24;97189.72;5047134;28;20051;-26
2021/03/21 00:48:39;;;;;;;1.30;0.70;;;;;;;24.86;27.20;97194.94;5046965;28;20508;-27
2021/03/21 00:51:05;;;;;;;1.30;0.70;;;;;;;24.86;27.22;97189.72;5047335;28;20028;-27
2021/03/21 00:53:30;;;;;;;1.90;0.80;;;;;;;24.86;27.32;97189.72;5046763;28;20036;-28
2021/03/21 00:55:55;;;;;;;1.35;0.90;;;;;;;24.86;27.45;97184.47;5049589;28;20243;-28
2021/03/21 00:58:21;;;;;;;1.65;0.80;;;;;;;24.84;27.46;97181.91;5046370;28;20024;-27
2021/03/21 01:00:52;;;;;;;1.55;0.90;;;;;;;24.84;27.18;97181.03;5046575;28;20047;-28
2021/03/21 01:03:17;;;;;;;1.40;0.80;;;;;;;24.85;27.50;97174.88;5044236;28;20082;-27
2021/03/21 01:05:45;;;;;;;1.33;0.73;;;;;;;24.84;27.36;97160.06;5049630;28;20021;-27
2021/03/21 01:08:28;;;;;;;1.15;0.80;;;;;;;24.83;27.28;97163.59;5046842;28;20085;-28
2021/03/21 01:11:20;;;;;;;2.08;0.73;;;;;;;24.83;27.30;97156.59;5046826;28;20058;-28
2021/03/21 01:13:45;;;;;;;1.15;0.90;;;;;;;24.83;27.50;97158.34;5045995;28;20040;-28
2021/03/21 01:16:19;;;;;;;1.52;0.80;;;;;;;24.83;27.45;97158.34;5043149;28;20067;-27
2021/03/21 01:18:44;;;;;;;1.45;0.90;;;;;;;24.84;27.34;97162.69;5047385;28;20058;-27
2021/03/21 01:21:13;;;;;;;1.00;0.70;;;;;;;24.83;27.36;97153.09;5047138;28;20029;-29
2021/03/21 01:23:39;;;;;;;1.73;0.68;;;;;;;24.83;27.29;97145.25;5048399;28;20024;-27
2021/03/21 01:26:04;;;;;;;1.52;0.82;;;;;;;24.83;27.35;97150.47;5053744;28;20064;-28
2021/03/21 01:28:36;;;;;;;1.55;0.93;;;;;;;24.83;27.50;97140.00;5056375;28;20043;-27
2021/03/21 01:31:04;;;;;;;1.10;0.60;;;;;;;24.83;27.34;97143.47;5055693;28;20437;-27
2021/03/21 01:33:30;;;;;;;1.35;0.75;;;;;;;24.83;27.32;97142.63;5054404;28;20075;-26
2021/03/21 01:35:56;;;;;;;1.63;0.77;;;;;;;24.83;27.37;97137.38;5057849;28;20672;-27
2021/03/21 01:38:21;;;;;;;1.73;0.73;;;;;;;24.83;27.24;97140.00;5053954;28;20037;-26
2021/03/21 01:40:47;;;;;;;1.33;0.80;;;;;;;24.84;27.42;97128.63;5062498;28;20028;-28
2021/03/21 01:43:14;;;;;;;0.80;0.60;;;;;;;24.82;27.46;97126.03;5048818;28;20028;-28
2021/03/21 01:45:42;;;;;;;0.82;0.65;;;;;;;24.83;27.32;97130.38;5054611;28;20041;-27
2021/03/21 01:48:28;;;;;;;1.15;0.55;;;;;;;24.83;27.54;97121.66;5061164;28;20025;-31
2021/03/21 01:51:12;;;;;;;0.60;0.60;;;;;;;24.83;27.20;97130.38;5049077;28;20032;-28
2021/03/21 01:53:39;;;;;;;1.00;0.60;;;;;;;24.84;27.43;97119.00;5045437;28;20035;-30
2021/03/21 01:56:05;;;;;;;1.00;0.73;;;;;;;24.84;27.33;97112.88;5057390;28;20041;-26
2021/03/21 01:58:31;;;;;;;1.40;0.88;;;;;;;24.83;27.50;97117.25;5049293;28;20075;-28
2021/03/21 02:00:58;;;;;;;1.63;0.80;;;;;;;24.84;27.29;97112.88;5035334;28;20044;-28
2021/03/21 02:03:23;;;;;;;0.60;0.40;;;;;;;24.83;27.35;97111.16;5055580;28;20111;-27
2021/03/21 02:05:50;;;;;;;1.15;0.68;;;;;;;24.84;27.38;97115.50;5052292;28;20028;-27
2021/03/21 02:08:39;;;;;;;1.60;0.82;;;;;;;24.83;27.32;97109.41;5044056;28;20078;-28
2021/03/21 02:11:08;;;;;;;1.35;0.90;;;;;;;24.83;27.49;97111.16;5046110;28;20485;-27
2021/03/21 02:13:58;;;;;;;1.27;0.73;;;;;;;24.83;27.29;97117.25;5047458;28;20036;-27
2021/03/21 02:16:50;;;;;;;0.98;0.55;;;;;;;24.84;27.52;97118.13;5037899;28;20330;-26
2021/03/21 02:19:24;;;;;;;1.83;0.80;;;;;;;24.84;27.44;97107.66;5051583;28;20554;-27
2021/03/21 02:21:54;;;;;;;1.50;0.68;;;;;;;24.83;27.42;97105.91;5047204;28;20093;-27
2021/03/21 02:24:32;;;;;;;0.75;0.52;;;;;;;24.82;27.45;97093.75;5050202;28;20057;-27
2021/03/21 02:27:05;;;;;;;0.50;0.40;;;;;;;24.83;27.28;97090.19;5050608;28;20023;-27
2021/03/21 02:30:01;;;;;;;0.93;0.68;;;;;;;24.83;27.34;97084.94;5030247;28;20031;-27
2021/03/21 02:32:35;;;;;;;0.82;0.57;;;;;;;24.82;27.29;97081.47;5033599;28;20052;-27
2021/03/21 02:35:47;;;;;;;1.75;0.63;;;;;;;24.82;27.43;97085.88;5048923;28;20051;-26
2021/03/21 02:38:32;;;;;;;;;;;;;;;24.83;27.44;97079.72;5044613;28;20048;-26
2021/03/21 02:41:02;;;;;;;0.70;0.50;;;;;;;24.80;27.53;97078.91;5049058;28;19921;-27
2021/03/21 02:43:37;;;;;;;1.30;0.43;;;;;;;24.79;27.31;97064.09;5046576;28;20039;-28
2021/03/21 02:46:27;;;;;;;0.45;0.45;;;;;;;24.80;27.27;97075.44;5032812;28;20552;-27
2021/03/21 02:48:58;;;;;;;1.42;0.80;;;;;;;24.79;27.38;97074.59;5047373;28;20039;-26
2021/03/21 02:51:32;;;;;;;0.73;0.70;;;;;;;24.79;27.25;97074.59;5048854;28;20107;-26
2021/03/21 02:54:00;;;;;;;1.58;0.60;;;;;;;24.79;27.36;97069.34;5034647;28;20295;-26
2021/03/21 02:56:27;;;;;;;2.30;0.60;;;;;;;24.80;27.39;97063.19;5048065;28;20093;-27
2021/03/21 02:58:54;;;;;;;1.17;0.70;;;;;;;24.80;27.37;97067.59;5039917;28;20032;-27
2021/03/21 03:01:26;;;;;;;0.50;0.50;;;;;;;24.80;27.42;97063.19;5064029;28;20041;-27
2021/03/21 03:03:52;;;;;;;0.63;0.50;;;;;;;24.80;27.26;97055.31;5052610;28;20032;-27
2021/03/21 03:06:21;;;;;;;0.60;0.50;;;;;;;24.80;27.23;97052.69;5042319;28;20036;-27
2021/03/21 03:08:55;;;;;;;1.45;0.65;;;;;;;24.80;27.63;97052.69;5060953;28;20025;-26
2021/03/21 03:11:32;;;;;;;1.15;0.60;;;;;;;24.81;27.52;97050.94;5049153;28;20025;-26
2021/03/21 03:14:00;;;;;;;0.52;0.47;;;;;;;24.83;27.22;97048.25;5049903;28;20020;-28
2021/03/21 03:16:45;;;;;;;1.15;0.52;;;;;;;24.82;27.48;97043.94;5049475;28;20714;-28
2021/03/21 03:19:29;;;;;;;0.90;0.60;;;;;;;24.82;27.38;97046.56;5053608;28;20029;-26
2021/03/21 03:22:04;;;;;;;0.60;0.60;;;;;;;24.82;27.26;97042.16;5053139;28;20032;-27
2021/03/21 03:24:38;;;;;;;0.50;0.47;;;;;;;24.82;27.30;97041.31;5049748;28;20071;-26
2021/03/21 03:27:32;;;;;;;0.77;0.60;;;;;;;24.80;27.34;97038.75;5046631;28;20020;-27
2021/03/21 03:30:04;;;;;;;0.60;0.57;;;;;;;24.80;27.34;97031.72;5037120;28;20044;-27
2021/03/21 03:32:29;;;;;;;0.95;0.68;;;;;;;24.80;27.36;97033.50;5033932;28;20416;-26
2021/03/21 03:34:56;;;;;;;1.33;0.50;;;;;;;24.79;27.45;97027.41;5048174;28;20035;-27
2021/03/21 03:37:22;;;;;;;0.40;0.40;;;;;;;24.79;27.38;97027.41;5047767;28;20033;-27
2021/03/21 03:39:48;;;;;;;0.98;0.60;;;;;;;24.79;27.58;97024.78;5048965;28;20036;-28
2021/03/21 03:42:34;;;;;;;0.98;0.55;;;;;;;24.79;27.46;97016.94;5048065;28;20052;-27
2021/03/21 03:45:11;;;;;;;0.47;0.38;;;;;;;24.79;27.36;97016.09;5032393;28;20027;-25
2021/03/21 03:47:55;;;;;;;0.57;0.30;;;;;;;24.79;27.50;97013.47;5046650;28;20322;-28
2021/03/21 03:50:41;;;;;;;0.70;0.47;;;;;;;24.78;27.55;97010.00;5032116;28;20035;-24
2021/03/21 03:53:34;;;;;;;0.73;0.70;;;;;;;24.78;27.33;97012.63;5050790;28;21032;-28
2021/03/21 03:56:19;;;;;;;1.30;0.50;;;;;;;24.78;27.59;97019.63;5048044;28;20036;-28
2021/03/21 03:58:48;;;;;;;0.55;0.55;;;;;;;24.77;27.48;97018.78;5033549;28;20033;-26
2021/03/21 04:01:29;;;;;;;0.95;0.70;;;;;;;24.78;27.46;97025.72;5045872;28;20049;-26
2021/03/21 04:03:57;;;;;;;0.85;0.68;;;;;;;24.77;27.51;97024.03;5047675;28;20013;-27
2021/03/21 04:06:40;;;;;;;0.88;0.52;;;;;;;24.77;27.54;97018.78;5045214;28;20508;-27
2021/03/21 04:09:18;;;;;;;1.15;0.52;;;;;;;24.76;27.38;97027.56;5047916;28;20560;-26
2021/03/21 04:11:50;;;;;;;0.63;0.60;;;;;;;24.77;27.51;97013.53;5032582;28;20025;-26
2021/03/21 04:14:38;;;;;;;1.88;0.50;;;;;;;24.77;27.48;97008.31;5048176;28;20155;-26
2021/03/21 04:17:38;;;;;;;0.52;0.52;;;;;;;24.77;27.49;97010.91;5045313;28;20167;-27
2021/03/21 04:20:20;;;;;;;0.70;0.60;;;;;;;24.77;27.34;97008.31;5034845;28;20138;-26
2021/03/21 04:23:03;;;;;;;0.75;0.55;;;;;;;24.76;27.55;96993.50;5050453;28;20024;-26
2021/03/21 04:25:32;;;;;;;1.20;0.60;;;;;;;24.76;27.62;96998.75;5050050;28;20052;-26
2021/03/21 04:28:17;;;;;;;2.22;1.25;;;;;;;24.76;27.47;96993.50;5049375;28;20032;-26
2021/03/21 04:30:53;;;;;;;0.90;0.70;;;;;;;24.75;27.08;96994.41;5047939;28;20610;-28
2021/03/21 04:33:21;;;;;;;0.57;0.57;;;;;;;24.75;27.30;96997.03;5029797;28;20117;-28
2021/03/21 04:35:52;;;;;;;5.28;0.57;;;;;;;24.75;27.53;96997.03;5046645;28;20032;-27
2021/03/21 04:38:36;;;;;;;0.45;0.43;;;;;;;24.75;27.39;96994.41;5046294;28;20036;-26
2021/03/21 04:41:03;;;;;;;0.65;0.50;;;;;;;24.76;27.41;96996.13;5048214;28;20142;-26
2021/03/21 04:43:31;;;;;;;0.75;0.70;;;;;;;24.75;27.34;96989.16;5030011;28;20051;-25
2021/03/21 04:45:59;;;;;;;0.85;0.68;;;;;;;24.75;27.19;96991.78;5047437;28;20182;-26
2021/03/21 04:48:25;;;;;;;0.70;0.50;;;;;;;24.75;27.36;96983.91;5026913;28;20037;-30
2021/03/21 04:51:01;;;;;;;0.63;0.50;;;;;;;24.75;27.50;96977.84;5049457;28;20070;-26
2021/03/21 04:53:56;;;;;;;0.50;0.50;;;;;;;24.74;27.54;96974.34;5047388;28;20237;-27
2021/03/21 04:56:26;;;;;;;1.65;0.63;;;;;;;24.75;27.60;96968.19;5048268;28;20047;-26
2021/03/21 04:59:02;;;;;;;0.75;0.52;;;;;;;24.75;27.34;96968.19;5048961;28;20028;-26
2021/03/21 05:01:35;;;;;;;0.57;0.57;;;;;;;24.75;27.33;96962.94;5047949;28;20040;-24
2021/03/21 05:04:04;;;;;;;0.98;0.52;;;;;;;24.74;27.48;96950.78;5032502;28;20024;-26
2021/03/21 05:06:50;;;;;;;0.50;0.50;;;;;;;24.74;27.56;96953.41;5049258;28;20071;-26
2021/03/21 05:09:38;;;;;;;0.52;0.40;;;;;;;24.74;27.42;96961.25;5065675;28;20107;-27
2021/03/21 05:12:13;;;;;;;0.75;0.50;;;;;;;24.74;27.33;96966.50;5045088;28;20016;-26
2021/03/21 05:14:42;;;;;;;1.65;0.68;;;;;;;24.73;27.34;96964.81;5046464;28;20037;-26
2021/03/21 05:17:16;;;;;;;1.25;0.50;;;;;;;24.73;27.51;96970.03;5030576;28;20040;-26
2021/03/21 05:19:53;;;;;;;0.60;0.52;;;;;;;24.74;27.47;96970.88;5043749;28;20123;-26
2021/03/21 05:22:26;;;;;;;1.25;0.70;;;;;;;24.75;27.38;96980.47;5047644;28;20024;-26
2021/03/21 05:25:04;;;;;;;0.57;0.50;;;;;;;24.75;27.53;96988.31;5049976;28;20442;-26
2021/03/21 05:27:34;;;;;;;2.50;0.50;;;;;;;24.74;27.41;96976.97;5055210;28;20032;-26
2021/03/21 05:30:16;;;;;;;0.73;0.47;;;;;;;24.73;27.42;96980.53;5044222;28;20074;-26
2021/03/21 05:32:42;;;;;;;1.65;0.60;;;;;;;24.74;27.51;96982.22;5061679;28;20036;-26
2021/03/21 05:35:10;;;;;;;0.65;0.43;;;;;;;24.73;27.60;96980.53;5056939;28;20048;-28
2021/03/21 05:37:53;;;;;;;0.85;0.50;;;;;;;24.74;27.70;96990.09;5047181;28;20028;-26
2021/03/21 05:40:56;;;;;;;1.35;0.68;;;;;;;24.74;27.59;96994.47;5059287;28;20032;-27
2021/03/21 05:43:48;;;;;;;0.75;0.43;;;;;;;24.74;27.38;96987.47;5048601;28;20060;-25
2021/03/21 05:46:53;;;;;;;0.85;0.47;;;;;;;24.74;27.69;96997.94;5023674;28;20154;-27
2021/03/21 05:49:31;;;;;;;1.23;0.65;;;;;;;24.73;27.58;96985.78;5045340;28;20021;-27
2021/03/21 05:52:17;;;;;;;1.35;0.50;;;;;;;24.73;27.63;96985.78;5046860;28;20807;-27
2021/03/21 05:55:07;;;;;;;0.50;0.50;;;;;;;24.75;27.59;96988.31;5045583;28;20056;-29
2021/03/21 05:58:13;;;;;;;0.95;0.55;;;;;;;24.74;27.47;96982.22;5047915;28;20047;-29
2021/03/21 06:01:07;;;;;;;0.32;0.30;;;;;;;24.74;27.47;96987.47;5007069;28;20029;-26
2021/03/21 06:03:53;;;;;;;0.63;0.40;;;;;;;24.74;27.47;96976.13;5046206;28;20040;-26
2021/03/21 06:06:36;;;;;;;0.45;0.40;;;;;;;24.74;27.57;96969.13;5047715;28;20689;-27
2021/03/21 06:09:07;;;;;;;1.08;0.70;;;;;;;24.75;27.48;96962.94;5045622;28;20217;-27
2021/03/21 06:11:35;;;;;;;0.75;0.65;;;;;;;24.75;27.68;96960.31;5046547;28;20081;-26
2021/03/21 06:14:22;;;;;;;0.85;0.40;;;;;;;24.76;27.59;96954.19;5046373;28;20139;-27
2021/03/21 06:16:51;;;;;;;0.50;0.43;;;;;;;24.76;27.55;96948.94;5045985;28;20132;-26
2021/03/21 06:19:44;;;;;;;1.08;0.50;;;;;;;24.77;27.49;96950.63;5050175;28;20752;-26
2021/03/21 06:22:46;;;;;;;0.55;0.40;;;;;;;24.77;27.37;96953.25;5051914;28;20033;-26
2021/03/21 06:25:25;;;;;;;1.85;0.40;;;;;;;24.78;27.52;96957.56;5049120;28;20035;-27
2021/03/21 06:28:13;;;;;;;0.50;0.50;;;;;;;24.79;27.61;96953.19;5033266;28;20020;-27
2021/03/21 06:30:45;;;;;;;1.65;0.50;;;;;;;24.78;27.47;96951.47;5045571;28;20192;-25
2021/03/21 06:33:30;;;;;;;0.52;0.40;;;;;;;24.79;27.70;96951.41;5042418;28;20159;-27
2021/03/21 06:36:29;;;;;;;0.30;0.30;;;;;;;24.80;27.44;96960.13;5049910;28;20040;-29
2021/03/21 06:39:06;;;;;;;0.65;0.47;;;;;;;24.80;27.42;96955.72;5047196;28;20033;-28
2021/03/21 06:41:53;;;;;;;0.40;0.40;;;;;;;24.80;27.43;96960.97;5045674;28;20125;-26
2021/03/21 06:44:34;;;;;;;0.75;0.50;;;;;;;24.81;27.50;96953.97;5045483;28;20025;-26
2021/03/21 06:47:21;;;;;;;1.02;0.60;;;;;;;24.82;27.59;96957.44;5047535;28;20568;-27
2021/03/21 06:50:08;;;;;;;0.85;0.47;;;;;;;24.83;27.55;96953.88;5058389;28;20099;-25
2021/03/21 06:53:06;;;;;;;0.43;0.40;;;;;;;24.82;27.57;96953.03;5056966;28;20047;-25
2021/03/21 06:55:31;;;;;;;0.77;0.40;;;;;;;24.83;27.45;96949.50;5046125;28;20040;-26
2021/03/21 06:58:12;;;;;;;0.50;0.40;;;;;;;24.83;27.44;96960.00;5059903;28;20032;-26
2021/03/21 07:00:57;;;;;;;1.48;0.70;;;;;;;24.84;27.66;96945.13;5049859;28;20114;-26
2021/03/21 07:03:31;;;;;;;0.40;0.40;;;;;;;24.84;27.38;96943.38;5052185;28;20033;-25
2021/03/21 07:06:15;;;;;;;0.55;0.52;;;;;;;24.84;27.41;96946.00;5048174;28;20810;-26
2021/03/21 07:09:02;;;;;;;1.00;0.55;;;;;;;24.85;27.51;96944.19;5047754;28;20056;-24
2021/03/21 07:12:01;;;;;;;1.30;0.50;;;;;;;24.86;27.49;96938.91;5048419;28;20024;-26
2021/03/21 07:15:04;;;;;;;0.52;0.50;;;;;;;24.86;27.37;96938.06;5049864;28;20040;-28
2021/03/21 07:17:50;;;;;;;0.47;0.45;;;;;;;24.85;27.58;96934.56;5048163;28;20056;-26
2021/03/21 07:20:34;;;;;;;0.32;0.32;;;;;;;24.86;27.58;96938.06;5048290;28;20110;-27
2021/03/21 07:23:08;;;;;;;0.45;0.35;;;;;;;24.86;27.56;96938.91;5048650;28;20554;-26
2021/03/21 07:26:19;;;;;;;1.63;0.55;;;;;;;24.86;27.61;96938.06;5047469;28;20100;-27
2021/03/21 07:29:03;;;;;;;0.50;0.40;;;;;;;24.87;27.63;96937.13;5045299;28;20040;-25
2021/03/21 07:31:37;;;;;;;2.25;0.80;;;;;;;24.87;27.58;96934.50;5049235;28;20040;-25
2021/03/21 07:34:21;;;;;;;1.40;0.77;;;;;;;24.88;27.62;96937.06;5050344;28;20490;-26
2021/03/21 07:37:25;;;;;;;18.13;1.83;;;;;;;24.87;27.50;96931.88;5051019;28;20116;-25
2021/03/21 07:40:14;;;;;;;2.45;0.70;;;;;;;24.87;27.64;96934.50;5033331;28;20044;-26
2021/03/21 07:43:05;;;;;;;1.23;0.77;;;;;;;24.87;27.33;96947.63;5039264;28;20086;-27
2021/03/21 07:45:50;;;;;;;7.68;1.00;;;;;;;24.87;27.42;96937.97;5045085;28;20094;-26
2021/03/21 07:48:40;;;;;;;2.15;1.02;;;;;;;24.87;27.55;96945.00;5044020;28;20114;-25
2021/03/21 07:51:18;;;;;;;4.32;0.80;;;;;;;24.87;27.51;96950.25;5033980;28;20029;-26
2021/03/21 07:54:17;;;;;;;7.25;0.90;;;;;;;24.87;27.48;96950.25;5051664;28;20073;-29
2021/03/21 07:56:45;;;;;;;2.13;0.80;;;;;;;24.87;27.64;96950.25;5043428;28;20047;-26
2021/03/21 07:59:16;;;;;;;2.10;1.00;;;;;;;24.87;27.56;96945.00;5034601;28;20066;-28
2021/03/21 08:01:42;;;;;;;4.68;0.80;;;;;;;24.88;27.68;96941.44;5055822;28;20040;-27
2021/03/21 08:04:12;;;;;;;1.95;0.90;;;;;;;24.89;27.64;96940.53;5049679;28;20377;-26
2021/03/21 08:06:40;;;;;;;1.55;0.88;;;;;;;24.89;27.64;96937.91;5052280;28;20136;-27
2021/03/21 08:09:22;;;;;;;2.13;0.95;;;;;;;24.90;27.73;96923.88;5059044;28;20079;-26
2021/03/21 08:12:07;;;;;;;;;;;;;;;24.91;27.81;96925.59;5058166;28;20064;-28
2021/03/21 08:14:38;;;;;;;5.47;0.75;;;;;;;24.91;27.77;96934.28;5057022;28;19928;-27
2021/03/21 08:17:04;;;;;;;3.15;0.93;;;;;;;24.91;27.61;96933.44;5037945;28;20152;-26
2021/03/21 08:19:34;;;;;;;1.05;0.60;;;;;;;24.91;27.61;96933.44;5054541;28;20151;-27
2021/03/21 08:22:00;;;;;;;9.38;1.17;;;;;;;24.91;27.79;96931.66;5040367;28;20077;-28
2021/03/21 08:24:31;;;;;;;6.93;1.73;;;;;;;24.92;27.62;96927.28;5057197;28;21128;-26
2021/03/21 08:26:58;;;;;;;3.58;1.13;;;;;;;24.92;27.62;96927.28;5058109;28;20031;-27
2021/03/21 08:29:26;;;;;;;3.90;0.98;;;;;;;24.93;27.69;96926.34;5057754;28;20047;-25
2021/03/21 08:32:09;;;;;;;2.15;0.90;;;;;;;24.92;27.70;96927.28;5035328;28;20044;-27
2021/03/21 08:34:47;;;;;;;4.20;0.75;;;;;;;24.94;27.59;96912.31;5054019;28;20029;-26
2021/03/21 08:37:32;;;;;;;1.13;0.70;;;;;;;24.94;27.62;96901.81;5054751;28;20492;-25
2021/03/21 08:40:17;;;;;;;4.60;0.77;;;;;;;24.95;27.85;96903.53;5053001;28;20036;-26
2021/03/21 08:42:43;;;;;;;1.30;0.77;;;;;;;24.97;27.80;96899.06;5054134;28;20050;-26
2021/03/21 08:45:29;;;;;;;2.25;0.80;;;;;;;24.97;27.82;96904.31;5050821;28;20024;-29
2021/03/21 08:48:14;;;;;;;1.35;0.70;;;;;;;24.98;27.75;96906.00;5051581;28;20045;-26
2021/03/21 08:50:44;;;;;;;2.53;0.80;;;;;;;25.00;27.97;96911.16;5052537;28;20389;-29
2021/03/21 08:53:35;;;;;;;2.30;0.80;;;;;;;25.00;28.11;96912.03;5049123;28;20702;-27
2021/03/21 08:56:18;;;;;;;1.48;0.85;;;;;;;25.02;27.89;96909.34;5056507;28;20101;-28
2021/03/21 08:58:51;;;;;;;3.85;0.73;;;;;;;25.02;28.03;96891.81;5054026;28;20081;-26
2021/03/21 09:01:24;;;;;;;1.63;0.80;;;;;;;25.03;27.95;96883.06;5049907;28;20474;-28
2021/03/21 09:03:51;;;;;;;1.17;0.55;;;;;;;25.03;27.88;96877.81;5055508;28;20031;-27
2021/03/21 09:06:30;;;;;;;4.35;0.73;;;;;;;25.04;28.14;96861.16;5045195;28;20900;-26
2021/03/21 09:09:21;;;;;;;3.40;0.80;;;;;;;25.02;28.14;96865.59;5051811;28;20071;-27
2021/03/21 09:11:57;;;;;;;1.40;0.73;;;;;;;25.05;28.02;96875.09;5053877;28;20048;-26
2021/03/21 09:14:31;;;;;;;2.65;0.82;;;;;;;25.05;27.99;96870.72;5053113;28;20029;-26
2021/03/21 09:17:04;;;;;;;0.60;0.50;;;;;;;25.07;28.16;96869.78;5052772;28;20522;-27
2021/03/21 09:19:32;;;;;;;1.08;0.55;;;;;;;25.07;27.95;96873.25;5053917;28;20144;-28
2021/03/21 09:21:58;;;;;;;2.90;0.85;;;;;;;25.08;28.06;96884.56;5052966;28;20507;-26
2021/03/21 09:24:28;;;;;;;1.27;0.73;;;;;;;25.09;28.25;96886.31;5051900;28;20024;-27
2021/03/21 09:26:55;;;;;;;2.72;0.73;;;;;;;25.10;28.19;96893.22;5052537;28;20600;-27
2021/03/21 09:29:29;;;;;;;2.90;0.50;;;;;;;25.10;28.14;96894.09;5037675;28;20035;-26
2021/03/21 09:31:57;;;;;;;1.27;0.55;;;;;;;25.12;28.24;96886.13;5048912;28;20225;-28
2021/03/21 09:34:45;;;;;;;3.88;2.85;;;;;;;25.05;25.83;96886.44;5038657;28;20046;-28
2021/03/21 09:37:12;;;;;;;4.50;2.97;;;;;;;24.90;23.95;96887.19;5059960;28;20878;-26
2021/03/21 09:39:57;;;;;;;6.13;2.83;;;;;;;24.69;22.60;96887.25;5051478;28;20478;-27
2021/03/21 09:42:22;;;;;;;10.18;3.75;;;;;;;24.44;21.32;96891.00;5057280;28;20028;-27
2021/03/21 09:44:48;;;;;;;18.10;3.55;;;;;;;24.24;21.06;96890.16;5034471;28;20029;-26
2021/03/21 09:47:32;;;;;;;7.53;3.22;;;;;;;24.12;21.95;96895.94;5051238;28;20102;-34
2021/03/21 09:50:04;;;;;;;7.45;2.67;;;;;;;24.02;22.31;96896.31;5049513;28;20033;-25
2021/03/21 09:52:37;;;;;;;7.72;2.75;;;;;;;23.99;22.78;96901.66;5054023;28;20039;-27
2021/03/21 09:55:11;;;;;;;3.33;2.25;;;;;;;23.97;22.97;96903.53;5052446;28;20459;-27
2021/03/21 09:58:01;;;;;;;5.38;2.15;;;;;;;24.00;23.01;96902.53;5050710;28;20040;-26
2021/03/21 10:00:31;;;;;;;7.65;2.47;;;;;;;24.01;23.46;96894.63;5053451;28;20059;-29
2021/03/21 10:03:00;;;;;;;3.53;2.08;;;;;;;24.05;23.51;96899.69;5029335;28;20820;-26
2021/03/21 10:05:39;;;;;;;3.38;2.10;;;;;;;24.09;23.84;96898.66;5051910;28;20035;-26
2021/03/21 10:08:08;;;;;;;4.78;2.00;;;;;;;24.12;23.65;96901.16;5047602;28;20036;-27
2021/03/21 10:10:36;;;;;;;2.42;1.90;;;;;;;24.17;23.74;96907.03;5045317;28;20085;-27
2021/03/21 10:13:01;;;;;;;2.00;1.58;;;;;;;24.21;23.88;96905.16;5047064;28;20028;-25
2021/03/21 10:15:27;;;;;;;5.93;1.88;;;;;;;24.24;24.31;96905.88;5049494;28;20106;-25
2021/03/21 10:17:57;;;;;;;7.40;1.88;;;;;;;24.29;24.36;96907.44;5051716;28;20020;-26
2021/03/21 10:20:52;;;;;;;5.05;1.60;;;;;;;24.30;24.44;96896.88;5055321;28;20095;-26
2021/03/21 10:23:17;;;;;;;4.43;1.95;;;;;;;24.35;24.56;96891.41;5050842;28;20129;-27
2021/03/21 10:25:42;;;;;;;20.50;4.10;;;;;;;24.38;24.47;96896.53;5054304;28;20047;-27
2021/03/21 10:28:34;;;;;;;27.42;5.47;;;;;;;24.41;24.50;96891.16;5056356;28;20020;-26
2021/03/21 10:31:21;;;;;;;22.40;4.20;;;;;;;24.44;24.90;96891.00;5046247;28;20040;-28
2021/03/21 10:33:47;;;;;;;13.38;3.20;;;;;;;24.49;24.77;96899.50;5058003;28;20037;-26
2021/03/21 10:36:33;;;;;;;11.85;2.83;;;;;;;24.51;24.87;96887.19;5066279;28;20047;-26
2021/03/21 10:38:59;;;;;;;10.60;2.67;;;;;;;24.54;24.92;96886.19;5066308;28;20025;-26
2021/03/21 10:42:01;;;;;;;7.25;2.28;;;;;;;24.57;25.16;96885.19;5064137;28;20032;-26
2021/03/21 10:44:36;;;;;;;5.47;2.15;;;;;;;24.61;25.28;96876.28;5063112;28;20067;-27
2021/03/21 10:47:33;;;;;;;4.78;2.15;;;;;;;24.62;25.20;96875.34;5066440;28;20048;-26
2021/03/21 10:50:07;;;;;;;9.60;2.53;;;;;;;24.66;25.38;96871.66;5062840;28;20097;-27
2021/03/21 10:52:32;;;;;;;9.90;2.70;;;;;;;24.68;25.25;96877.69;5065115;28;20029;-26
2021/03/21 10:55:14;;;;;;;6.65;2.13;;;;;;;24.69;25.14;96861.03;5065183;28;20082;-26
2021/03/21 10:57:42;;;;;;;10.07;2.55;;;;;;;24.71;25.39;96867.03;5065674;28;20038;-27
2021/03/21 11:00:13;;;;;;;6.88;2.15;;;;;;;24.72;25.34;96863.53;5064517;28;20035;-26
2021/03/21 11:02:44;;;;;;;7.75;2.10;;;;;;;24.75;25.43;96867.78;5062860;28;20070;-25
2021/03/21 11:05:45;;;;;;;7.30;2.58;;;;;;;24.77;25.41;96864.16;5054562;28;20492;-26
2021/03/21 11:08:17;;;;;;;4.37;2.03;;;;;;;24.78;25.34;96863.22;5034343;28;20152;-26
2021/03/21 11:10:47;;;;;;;6.57;1.98;;;;;;;24.79;25.59;96854.44;5063251;28;20063;-26
2021/03/21 11:13:30;;;;;;;7.72;2.33;;;;;;;24.81;25.52;96856.97;5059790;28;20032;-25
2021/03/21 11:15:55;;;;;;;3.45;1.90;;;;;;;24.83;25.58;96864.78;5058159;28;20566;-27
2021/03/21 11:18:24;;;;;;;6.72;2.08;;;;;;;24.84;25.69;96850.78;5065458;28;20024;-27
2021/03/21 11:21:01;;;;;;;4.05;1.83;;;;;;;24.85;25.60;96847.22;5059549;28;20492;-27
2021/03/21 11:23:26;;;;;;;6.28;2.20;;;;;;;24.86;25.54;96844.53;5051986;28;20143;-25
2021/03/21 11:25:51;;;;;;;4.95;1.98;;;;;;;24.88;25.65;96840.09;5058211;28;20396;-29
2021/03/21 11:28:36;;;;;;;4.72;2.00;;;;;;;24.88;25.80;96847.09;5061320;28;20070;-28
2021/03/21 11:31:01;;;;;;;5.55;1.48;;;;;;;24.89;25.65;96841.78;5062112;28;20043;-30
2021/03/21 11:33:48;;;;;;;5.00;1.73;;;;;;;24.91;25.70;96829.41;5064642;28;20028;-27
2021/03/21 11:36:32;;;;;;;4.65;1.50;;;;;;;24.91;25.73;96833.84;5062280;28;20029;-27
2021/03/21 11:38:58;;;;;;;5.32;1.90;;;;;;;24.93;26.02;96831.97;5061535;28;20102;-30
2021/03/21 11:41:29;;;;;;;2.67;1.50;;;;;;;24.94;25.93;96830.22;5063709;28;20512;-35
2021/03/21 11:44:25;;;;;;;5.57;1.83;;;;;;;24.95;26.07;96827.53;5067637;28;20024;-27
2021/03/21 11:46:50;;;;;;;4.50;1.90;;;;;;;24.97;25.95;96820.41;5063035;28;20040;-28
2021/03/21 11:49:16;;;;;;;3.90;1.92;;;;;;;24.98;26.08;96821.28;5059680;28;20059;-26
2021/03/21 11:51:42;;;;;;;4.10;1.70;;;;;;;24.98;26.09;96816.03;5058413;28;20048;-28
2021/03/21 11:54:15;;;;;;;5.15;1.77;;;;;;;24.99;26.04;96828.22;5045165;28;20025;-28
2021/03/21 11:57:13;;;;;;;3.53;1.60;;;;;;;25.00;26.10;96824.66;5045724;28;20032;-34
2021/03/21 11:59:43;;;;;;;6.25;1.65;;;;;;;25.01;26.29;96826.34;5054117;28;20434;-26
2021/03/21 12:02:46;;;;;;;3.67;1.60;;;;;;;25.00;26.31;96824.66;5059943;28;20048;-27
2021/03/21 12:05:15;;;;;;;7.05;1.60;;;;;;;25.00;26.52;96830.75;5060270;28;20531;-26
2021/03/21 12:07:41;;;;;;;4.07;1.73;;;;;;;25.01;26.37;96837.69;5051801;28;20105;-28
2021/03/21 12:10:06;;;;;;;3.38;1.67;;;;;;;25.01;26.45;96832.44;5063552;28;20029;-27
2021/03/21 12:12:35;;;;;;;5.18;1.50;;;;;;;25.02;26.23;96834.13;5059812;28;20028;-27
2021/03/21 12:15:04;;;;;;;4.60;1.65;;;;;;;25.02;26.42;96834.13;5063677;28;20020;-28
2021/03/21 12:17:31;;;;;;;3.30;1.50;;;;;;;25.03;26.55;96833.25;5062822;28;20048;-27